South Starksboro, Vermont
Current Conditions -  °F | °C
As of 7:15 PM on Thursday 27 Nov 2014 (Local Time) from K6B0 Reporting Station
Overcast Overcast  
Wind Chill: 28°   Ceiling: 2700
Heat Index: 28°   Visibility: 10mi
Dew Point: 20°   Wind: 0mph
Humidity: 72%   Direction: NA
Pressure: 30.01"   Gusts: NA
Location:  44.2287°N, 72.9928°W
Report Text: K6B0 280015Z AUTO 00000KT 10SM OVC027 M02/M06 A3001 RMK AO2 T10201065
Loading
Personal Weather Stations






























Interactive Weather Map New forecast layout! Learn more

10-Day Weather Forecast

Advertisements
Track Severe Weather on mobile